SLCB/CBB METAR and TAF weather

Enter ICAO airport designator
Station Type Date Time Source
SLCB METAR 2021/07/24 20:00 UTC NOAA

SLCB 242000Z 26006KT 9999 FEW040 29/M06 Q1020


Station Type Date Time Source
SLCB Decoded METAR 2021/07/24 20:00 UTC NOAA

Cochabamba, Bolivia (SLCB) 17-25S 066-11W 2570M
Jul 24, 2021 - 04:00 PM EDT / 2021.07.24 2000 UTC
Wind: from the W (260 degrees) at 7 MPH (6 KT):0
Visibility: greater than 7 mile(s):0
Sky conditions: mostly clear
Temperature: 84 F (29 C)
Dew Point: 21 F (-6 C)
Relative Humidity: 9%
Pressure (altimeter): 30.12 in. Hg (1020 hPa)
ob: SLCB 242000Z 26006KT 9999 FEW040 29/M06 Q1020
cycle: 20

Station Type Date Time Source
SLCB TAF 2021/07/24 18:23 UTC NOAA

TAF SLCB 241600Z 2418/2518 27010KT 9999 FEW033 TX30/2419Z TN06/2511Z PROB30
TEMPO 2419/2421 FEW036CB
TEMPO 2422/2424 13010KT
BECMG 2500/ 2502 00000KT

Example: see airport list